Time;durP1;ratioP1;P1;durP2;ratioP2;P2;SDS_P1;SDS_P2;PMS_P1;PMS_P2;Temp;Humidity;BMP_temperature;BMP_pressure;BME280_temperature;BME280_humidity;BME280_pressure;Samples;Min_cycle;Max_cycle;Signal;HPM_P1;HPM_P2
2022/04/28 00:02:05;;;;;;;3.28;1.70;;;;;;;11.94;74.80;101482.03;5014628;28;20045;-66
2022/04/28 00:04:33;;;;;;;2.10;1.50;;;;;;;11.93;74.46;101483.13;5014542;28;20056;-66
2022/04/28 00:07:02;;;;;;;2.60;1.88;;;;;;;11.96;74.37;101485.31;5014428;28;20049;-66
2022/04/28 00:09:30;;;;;;;2.75;2.00;;;;;;;12.02;74.19;101476.03;5013792;28;20069;-65
2022/04/28 00:11:58;;;;;;;2.88;1.90;;;;;;;12.06;74.30;101485.41;5013983;28;20068;-66
2022/04/28 00:14:26;;;;;;;2.65;2.03;;;;;;;12.19;74.87;101477.78;5014310;28;20050;-65
2022/04/28 00:16:54;;;;;;;4.22;2.13;;;;;;;12.21;74.12;101475.56;5014167;28;20042;-65
2022/04/28 00:19:22;;;;;;;3.03;2.17;;;;;;;12.23;74.48;101484.38;5013959;28;20050;-66
2022/04/28 00:21:50;;;;;;;3.30;2.63;;;;;;;12.29;73.96;101471.50;5013754;28;20046;-66
2022/04/28 00:24:19;;;;;;;4.72;2.42;;;;;;;12.58;72.47;101479.25;5014213;28;20062;-64
2022/04/28 00:26:47;;;;;;;2.58;2.30;;;;;;;12.74;72.76;101480.09;5013450;28;20415;-66
2022/04/28 00:29:15;;;;;;;2.50;2.15;;;;;;;12.65;73.05;101484.50;5014214;28;20045;-65
2022/04/28 00:31:43;;;;;;;2.70;2.17;;;;;;;12.51;73.88;101482.25;5014035;28;20056;-66
2022/04/28 00:34:11;;;;;;;4.78;3.30;;;;;;;12.47;73.18;101479.22;5013865;28;20056;-66
2022/04/28 00:36:39;;;;;;;4.30;3.05;;;;;;;12.47;73.68;101468.25;5013658;28;20054;-66
2022/04/28 00:39:07;;;;;;;5.65;3.45;;;;;;;12.52;71.56;101475.69;5011981;28;20054;-66
2022/04/28 00:41:37;;;;;;;5.15;3.90;;;;;;;12.59;71.88;101475.41;5013475;28;20054;-65
2022/04/28 00:44:10;;;;;;;5.03;3.25;;;;;;;12.69;69.20;101474.59;5013798;28;20065;-65
2022/04/28 00:46:40;;;;;;;4.47;2.72;;;;;;;12.75;68.74;101473.50;5014040;28;20050;-66
2022/04/28 00:51:55;;;;;;;6.20;4.03;;;;;;;12.71;70.15;101486.97;5028602;28;20050;-66
2022/04/28 00:54:28;;;;;;;7.63;3.92;;;;;;;12.69;71.32;101485.56;5028301;28;20513;-66
2022/04/28 00:56:58;;;;;;;8.45;4.43;;;;;;;12.68;73.33;101483.94;5013508;28;20394;-66
2022/04/28 00:59:29;;;;;;;10.30;4.47;;;;;;;12.69;73.88;101488.31;5013382;28;20078;-66
2022/04/28 01:01:57;;;;;;;6.00;4.32;;;;;;;12.66;73.60;101497.13;5028382;28;20050;-66
2022/04/28 01:04:25;;;;;;;9.57;4.97;;;;;;;12.61;74.08;101492.47;5028325;28;20056;-65
2022/04/28 01:06:53;;;;;;;6.25;4.28;;;;;;;12.48;74.53;101496.53;5013291;28;20049;-66
2022/04/28 01:09:22;;;;;;;8.15;4.57;;;;;;;12.46;75.53;101493.25;5027811;28;20046;-65
2022/04/28 01:11:50;;;;;;;9.00;4.55;;;;;;;12.56;74.69;101495.19;5028128;28;20061;-65
2022/04/28 01:14:25;;;;;;;6.82;4.43;;;;;;;12.50;75.02;101494.34;5011865;28;20063;-66
2022/04/28 01:17:00;;;;;;;6.78;4.25;;;;;;;12.54;75.56;101497.34;5011370;28;20045;-66
2022/04/28 01:19:29;;;;;;;5.55;3.92;;;;;;;12.47;74.87;101492.94;5027474;28;20053;-65
2022/04/28 01:21:57;;;;;;;8.88;3.88;;;;;;;12.42;77.67;101495.69;5027771;28;20034;-65
2022/04/28 01:24:25;;;;;;;4.47;3.60;;;;;;;12.45;74.30;101495.16;5013366;28;20061;-66
2022/04/28 01:26:56;;;;;;;7.15;4.38;;;;;;;12.46;73.48;101491.31;5014210;28;20050;-66
2022/04/28 01:29:24;;;;;;;6.47;4.20;;;;;;;12.49;73.88;101493.53;5027934;28;20061;-66
2022/04/28 01:31:53;;;;;;;7.60;3.40;;;;;;;12.48;74.83;101485.56;5027725;28;20068;-66
2022/04/28 01:34:21;;;;;;;5.60;4.00;;;;;;;12.39;73.13;101484.41;5027244;28;20493;-65
2022/04/28 01:36:49;;;;;;;7.63;3.65;;;;;;;12.33;74.03;101489.88;5027432;28;20053;-66
2022/04/28 01:39:17;;;;;;;7.25;3.70;;;;;;;12.30;73.50;101489.59;5012761;28;20049;-65
2022/04/28 01:41:48;;;;;;;4.80;3.78;;;;;;;12.32;74.49;101479.19;5012766;28;20054;-65
2022/04/28 01:44:17;;;;;;;6.53;3.67;;;;;;;12.40;72.49;101472.34;5011189;28;20508;-65
2022/04/28 01:46:45;;;;;;;4.90;3.50;;;;;;;12.44;73.38;101476.19;5012684;28;20050;-66
2022/04/28 01:49:49;;;;;;;4.00;3.30;;;;;;;12.48;72.53;101477.31;4952356;28;20047;-65
2022/04/28 01:55:35;;;;;;;5.68;3.22;;;;;;;12.41;72.82;101474.81;5012785;28;20045;-65
2022/04/28 01:58:32;;;;;;;5.43;3.05;;;;;;;12.38;72.49;101472.63;5011114;28;20046;-66
2022/04/28 02:01:13;;;;;;;4.53;3.40;;;;;;;12.45;73.39;101477.84;5009814;28;20050;-66
2022/04/28 02:03:41;;;;;;;4.30;2.85;;;;;;;12.41;71.90;101468.50;5018942;28;20053;-65
2022/04/28 02:06:09;;;;;;;2.88;2.53;;;;;;;12.41;72.73;101468.50;5010771;28;20053;-65
2022/04/28 02:08:39;;;;;;;3.08;2.60;;;;;;;12.45;73.18;101466.84;5011038;28;20049;-65
2022/04/28 02:11:07;;;;;;;6.03;3.80;;;;;;;12.50;71.85;101472.38;5013749;28;20061;-65
2022/04/28 02:13:56;;;;;;;4.85;2.90;;;;;;;12.36;72.57;101472.88;5004435;28;20054;-65
2022/04/28 02:16:41;;;;;;;3.67;2.78;;;;;;;12.43;71.65;101474.56;5010623;28;20061;-66
2022/04/28 02:19:22;;;;;;;4.97;3.22;;;;;;;12.51;71.20;101471.25;5011616;28;20493;-65
2022/04/28 02:21:51;;;;;;;4.28;2.95;;;;;;;12.52;70.75;101475.69;5020930;28;20057;-64
2022/04/28 02:24:19;;;;;;;8.05;2.78;;;;;;;12.48;70.82;101480.88;5022792;28;20060;-65
2022/04/28 02:26:47;;;;;;;3.30;2.65;;;;;;;12.48;70.50;101474.56;5026745;28;20065;-66
2022/04/28 02:29:15;;;;;;;5.18;3.30;;;;;;;12.43;69.70;101471.81;5011712;28;20054;-65
2022/04/28 02:31:47;;;;;;;7.00;3.17;;;;;;;12.38;70.31;101466.31;5013692;28;20061;-65
2022/04/28 02:34:15;;;;;;;3.92;2.38;;;;;;;12.31;70.04;101470.13;5018100;28;20045;-65
2022/04/28 02:36:51;;;;;;;6.93;3.03;;;;;;;12.32;70.85;101480.00;5016852;28;20053;-65
2022/04/28 02:39:20;;;;;;;3.85;2.53;;;;;;;12.32;71.51;101481.94;5018514;28;20064;-66
2022/04/28 02:41:50;;;;;;;3.40;2.55;;;;;;;12.34;71.33;101474.25;5023494;28;20409;-66
2022/04/28 02:44:19;;;;;;;6.45;3.20;;;;;;;12.36;70.23;101467.41;5017483;28;20049;-65
2022/04/28 02:46:48;;;;;;;5.07;2.85;;;;;;;12.40;70.28;101466.84;5017597;28;20108;-66
2022/04/28 02:49:25;;;;;;;4.28;2.58;;;;;;;12.40;71.26;101469.59;5033447;28;20054;-66
2022/04/28 02:51:54;;;;;;;2.88;2.63;;;;;;;12.38;70.33;101477.28;5015706;28;20038;-65
2022/04/28 02:54:25;;;;;;;3.60;2.53;;;;;;;12.33;71.08;101467.91;5014989;28;20053;-65
2022/04/28 02:56:55;;;;;;;4.50;2.75;;;;;;;12.28;70.75;101465.19;5016970;28;20048;-65
2022/04/28 02:59:23;;;;;;;3.30;2.70;;;;;;;12.25;70.44;101476.69;5017216;28;20485;-65
2022/04/28 03:01:52;;;;;;;4.35;2.50;;;;;;;12.28;70.63;101465.19;5017935;28;20049;-65
2022/04/28 03:04:25;;;;;;;4.32;2.65;;;;;;;12.27;70.02;101473.69;5018347;28;20054;-65
2022/04/28 03:12:35;;;;;;;3.00;2.63;;;;;;;12.17;71.43;101474.47;5033418;28;20384;-66
2022/04/28 03:15:12;;;;;;;3.97;2.85;;;;;;;12.13;73.40;101481.59;5032916;28;20054;-64
2022/04/28 03:17:40;;;;;;;3.50;2.75;;;;;;;12.07;71.99;101470.59;5017903;28;20053;-65
2022/04/28 03:20:10;;;;;;;4.70;2.88;;;;;;;12.09;72.09;101467.59;5017924;28;20061;-64
2022/04/28 03:22:37;;;;;;;3.90;3.20;;;;;;;12.09;72.34;101462.91;5018272;28;20050;-66
2022/04/28 03:25:06;;;;;;;3.42;2.60;;;;;;;12.04;72.66;101471.13;5033317;28;20050;-65
2022/04/28 03:27:34;;;;;;;5.13;3.28;;;;;;;12.02;72.47;101478.75;5031914;28;20614;-65
2022/04/28 03:30:04;;;;;;;4.32;2.95;;;;;;;11.89;73.59;101471.88;5014131;28;20041;-65
2022/04/28 03:32:48;;;;;;;4.90;3.40;;;;;;;11.82;74.84;101476.75;5016970;28;20053;-65
2022/04/28 03:35:16;;;;;;;4.05;3.03;;;;;;;11.74;74.47;101477.25;5016770;28;20050;-65
2022/04/28 03:37:47;;;;;;;4.32;3.28;;;;;;;11.82;75.31;101471.25;5016653;28;20042;-65
2022/04/28 03:40:17;;;;;;;3.85;3.08;;;;;;;11.74;75.39;101471.78;5016336;28;20046;-65
2022/04/28 03:42:46;;;;;;;6.13;3.80;;;;;;;11.77;75.16;101477.56;4998382;28;20046;-66
2022/04/28 03:45:14;;;;;;;5.20;3.20;;;;;;;11.72;76.33;101479.44;5013763;28;20056;-65
2022/04/28 03:47:43;;;;;;;6.85;3.28;;;;;;;11.66;77.46;101478.59;5029640;28;20046;-66
2022/04/28 03:50:11;;;;;;;5.30;3.35;;;;;;;11.77;75.76;101482.19;5014841;28;20053;-65
2022/04/28 03:52:40;;;;;;;6.72;3.83;;;;;;;11.74;77.95;101488.22;5014315;28;20056;-66
2022/04/28 03:55:09;;;;;;;4.95;3.17;;;;;;;11.74;76.90;101485.50;5013184;28;20054;-65
2022/04/28 03:57:38;;;;;;;4.45;3.25;;;;;;;11.67;76.23;101488.44;5029368;28;20413;-66
2022/04/28 04:00:07;;;;;;;5.22;3.80;;;;;;;11.65;77.93;101485.16;5014940;28;20050;-66
2022/04/28 04:02:35;;;;;;;5.72;3.67;;;;;;;11.65;76.88;101496.97;5014981;28;20050;-66
2022/04/28 04:05:03;;;;;;;5.40;3.15;;;;;;;11.65;77.27;101493.38;5012863;28;20046;-66
2022/04/28 04:07:33;;;;;;;4.78;3.28;;;;;;;11.76;78.99;101499.75;5029504;28;20060;-65
2022/04/28 04:10:13;;;;;;;7.20;4.22;;;;;;;11.82;77.07;101506.91;5012630;28;20599;-65
2022/04/28 04:12:46;;;;;;;6.68;4.00;;;;;;;11.85;76.61;101497.31;5012702;28;20053;-65
2022/04/28 04:15:34;;;;;;;6.90;4.10;;;;;;;11.88;77.05;101505.03;4998616;28;20057;-65
2022/04/28 04:18:25;;;;;;;7.35;4.28;;;;;;;12.02;76.15;101505.38;4988013;28;20065;-65
2022/04/28 04:20:59;;;;;;;3.85;2.75;;;;;;;12.07;74.82;101508.16;5012527;28;20428;-65
2022/04/28 04:23:27;;;;;;;5.72;3.80;;;;;;;12.10;75.31;101510.38;5012751;28;20069;-65
2022/04/28 04:25:56;;;;;;;5.68;3.42;;;;;;;12.16;76.60;101509.31;5028924;28;20050;-65
2022/04/28 04:28:25;;;;;;;5.70;3.40;;;;;;;12.21;74.58;101514.00;5009175;28;20046;-65
2022/04/28 04:34:29;;;;;;;7.90;3.40;;;;;;;12.25;76.27;101517.84;5013243;28;20072;-64
2022/04/28 04:36:57;;;;;;;3.65;2.92;;;;;;;12.33;76.39;101528.31;5013454;28;20054;-65
2022/04/28 04:39:26;;;;;;;5.70;3.58;;;;;;;12.33;76.90;101536.53;5012727;28;20458;-66
2022/04/28 04:41:55;;;;;;;4.50;3.40;;;;;;;12.30;75.61;101528.84;5021034;28;20050;-65
2022/04/28 04:44:23;;;;;;;3.40;2.80;;;;;;;12.21;75.33;101538.69;5021794;28;20408;-65
2022/04/28 04:46:52;;;;;;;4.53;3.75;;;;;;;12.20;75.77;101535.13;5011793;28;20117;-65
2022/04/28 04:49:32;;;;;;;4.15;3.47;;;;;;;12.22;75.84;101538.44;5011740;28;20057;-66
2022/04/28 04:52:13;;;;;;;4.32;3.25;;;;;;;12.34;75.73;101543.72;5023236;28;20053;-66
2022/04/28 04:55:05;;;;;;;4.35;3.05;;;;;;;12.72;75.77;101539.97;5012194;28;20042;-67
2022/04/28 04:57:48;;;;;;;3.00;2.78;;;;;;;12.80;74.33;101542.19;5010948;28;20053;-66
2022/04/28 05:00:16;;;;;;;3.78;2.63;;;;;;;12.88;73.15;101541.66;5012176;28;20393;-66
2022/04/28 05:03:02;;;;;;;5.45;2.70;;;;;;;12.99;73.93;101550.75;5012791;28;20058;-66
2022/04/28 05:05:53;;;;;;;4.32;2.63;;;;;;;13.11;72.99;101553.22;5011933;28;20059;-66
2022/04/28 05:08:25;;;;;;;4.25;3.17;;;;;;;13.03;72.96;101551.84;5011994;28;20576;-66
2022/04/28 05:10:59;;;;;;;4.40;3.28;;;;;;;13.22;72.54;101554.06;5010871;28;20053;-66
2022/04/28 05:13:28;;;;;;;4.07;2.95;;;;;;;13.36;73.26;101559.00;5013283;28;20042;-66
2022/04/28 05:15:58;;;;;;;4.80;3.38;;;;;;;13.31;71.55;101559.84;5009667;28;20038;-66
2022/04/28 05:18:44;;;;;;;4.95;3.17;;;;;;;13.27;72.88;101562.31;5017479;28;20061;-66
2022/04/28 05:21:31;;;;;;;3.92;3.20;;;;;;;13.39;72.44;101566.72;5013114;28;20053;-67
2022/04/28 05:24:13;;;;;;;3.65;3.03;;;;;;;13.51;71.57;101571.97;5011817;28;20052;-66
2022/04/28 05:27:20;;;;;;;5.18;2.92;;;;;;;13.60;71.48;101564.81;4955451;28;20078;-67
2022/04/28 05:29:52;;;;;;;4.78;3.17;;;;;;;13.64;71.06;101567.84;4969076;28;20038;-67
2022/04/28 05:32:49;;;;;;;4.53;2.97;;;;;;;13.64;71.51;101565.91;4967741;28;20498;-67
2022/04/28 05:35:55;;;;;;;3.05;2.75;;;;;;;13.70;71.52;101566.72;5000494;28;20052;-66
2022/04/28 05:38:25;;;;;;;4.20;2.88;;;;;;;13.67;71.62;101567.28;5011586;28;20053;-67
2022/04/28 05:40:53;;;;;;;5.68;3.15;;;;;;;13.77;71.79;101570.03;5009919;28;20045;-66
2022/04/28 05:46:07;;;;;;;4.70;2.92;;;;;;;13.87;71.47;101574.69;5008473;28;20057;-66
2022/04/28 05:48:36;;;;;;;3.60;3.00;;;;;;;13.98;71.23;101579.06;5012616;28;20050;-67
2022/04/28 05:51:14;;;;;;;5.43;2.80;;;;;;;14.04;71.27;101587.31;5011637;28;20038;-67
2022/04/28 05:53:42;;;;;;;3.63;2.70;;;;;;;14.02;70.49;101576.56;5027080;28;20045;-66
2022/04/28 05:56:10;;;;;;;3.88;3.22;;;;;;;14.11;70.76;101579.56;5008728;28;20054;-66
2022/04/28 05:58:42;;;;;;;5.72;2.97;;;;;;;14.15;70.65;101579.84;5007374;28;20072;-66
2022/04/28 06:01:37;;;;;;;5.07;3.83;;;;;;;14.30;70.62;101587.22;5001523;28;20054;-66
2022/04/28 06:04:10;;;;;;;6.13;3.30;;;;;;;14.40;70.09;101584.44;5024900;28;20038;-66
2022/04/28 06:06:41;;;;;;;5.20;3.45;;;;;;;14.46;69.76;101588.81;5008019;28;20042;-66
2022/04/28 06:09:41;;;;;;;6.25;3.17;;;;;;;14.54;69.26;101586.59;5006364;28;20057;-66
2022/04/28 06:12:10;;;;;;;9.82;3.55;;;;;;;14.65;70.08;101588.19;5006180;28;20034;-66
2022/04/28 06:15:16;;;;;;;3.90;3.28;;;;;;;14.74;69.30;101594.78;5002820;28;20046;-67
2022/04/28 06:18:07;;;;;;;5.75;3.13;;;;;;;14.78;69.32;101593.09;5008462;28;20142;-66
2022/04/28 06:20:36;;;;;;;3.83;3.20;;;;;;;14.84;68.94;101591.16;5005557;28;20396;-67
2022/04/28 06:23:22;;;;;;;4.13;3.05;;;;;;;14.90;68.88;101597.44;5008799;28;20045;-66
2022/04/28 06:25:50;;;;;;;4.15;2.58;;;;;;;14.99;68.99;101604.03;5019711;28;20129;-67
2022/04/28 06:28:19;;;;;;;5.60;3.35;;;;;;;15.02;69.93;101600.69;5019201;28;20054;-66
2022/04/28 06:30:53;;;;;;;4.38;2.75;;;;;;;15.18;69.39;101597.84;5009217;28;20050;-65
2022/04/28 06:33:26;;;;;;;8.00;2.80;;;;;;;15.28;69.74;101606.03;5007082;28;20053;-67
2022/04/28 06:36:04;;;;;;;3.70;2.75;;;;;;;15.37;69.72;101602.66;5007919;28;20049;-66
2022/04/28 06:38:36;;;;;;;3.78;3.10;;;;;;;15.46;68.38;101606.47;5025169;28;20508;-67
2022/04/28 06:41:07;;;;;;;7.32;3.30;;;;;;;15.55;68.35;101615.75;5006392;28;20056;-67
2022/04/28 06:43:39;;;;;;;4.53;3.00;;;;;;;15.59;67.54;101611.31;5011313;28;20405;-66
2022/04/28 06:46:25;;;;;;;2.83;2.38;;;;;;;15.72;67.62;101609.00;5010845;28;20034;-66
2022/04/28 06:49:11;;;;;;;4.07;2.17;;;;;;;15.81;65.50;101615.53;5007346;28;20042;-65
2022/04/28 06:51:54;;;;;;;3.25;2.60;;;;;;;15.92;64.86;101612.66;5010290;28;20050;-66
2022/04/28 06:54:32;;;;;;;3.55;2.25;;;;;;;15.97;60.96;101615.41;5006956;28;20046;-66
2022/04/28 06:57:00;;;;;;;6.28;2.00;;;;;;;15.95;62.15;101612.97;4993542;28;20053;-66
2022/04/28 06:59:31;;;;;;;4.18;2.10;;;;;;;16.02;61.25;101620.09;5003801;28;20393;-67
2022/04/28 07:01:59;;;;;;;2.40;1.63;;;;;;;15.95;60.98;101612.97;5009275;28;20046;-67
2022/04/28 07:04:28;;;;;;;3.08;1.70;;;;;;;16.05;62.62;101619.47;5009231;28;20054;-66
2022/04/28 07:06:56;;;;;;;2.70;1.88;;;;;;;16.15;59.96;101626.81;5009847;28;20029;-67
2022/04/28 07:09:24;;;;;;;2.97;1.73;;;;;;;16.23;58.91;101623.44;5007147;28;20505;-66
2022/04/28 07:12:11;;;;;;;1.73;1.60;;;;;;;16.31;56.74;101614.50;5005854;28;20057;-67
2022/04/28 07:14:58;;;;;;;1.83;1.58;;;;;;;16.46;59.75;101618.19;5011401;28;20064;-67
2022/04/28 07:17:35;;;;;;;1.52;1.42;;;;;;;16.38;57.07;101630.72;5011070;28;20057;-67
2022/04/28 07:20:04;;;;;;;2.00;1.55;;;;;;;16.45;57.28;101630.38;5013543;28;20041;-67
2022/04/28 07:22:32;;;;;;;1.85;1.27;;;;;;;16.46;57.85;101626.47;5013660;28;20034;-67
2022/04/28 07:25:02;;;;;;;1.98;1.35;;;;;;;16.49;56.86;101625.91;5013347;28;20404;-67
2022/04/28 07:27:30;;;;;;;1.67;0.98;;;;;;;16.50;54.86;101622.03;5011888;28;20066;-66
2022/04/28 07:30:10;;;;;;;0.75;0.75;;;;;;;16.60;53.41;101632.94;5012435;28;20046;-67
2022/04/28 07:32:40;;;;;;;0.80;0.65;;;;;;;16.56;52.34;101631.88;5014832;28;20618;-67
2022/04/28 07:35:14;;;;;;;1.17;0.82;;;;;;;16.62;52.28;101633.47;5014554;28;20058;-66
2022/04/28 07:38:01;;;;;;;0.90;0.77;;;;;;;16.83;52.04;101636.00;5014896;28;20042;-67
2022/04/28 07:40:32;;;;;;;0.95;0.77;;;;;;;16.90;53.26;101635.59;5014872;28;20064;-67
2022/04/28 07:43:05;;;;;;;0.95;0.80;;;;;;;16.96;50.97;101636.38;5012923;28;20049;-67
2022/04/28 07:45:33;;;;;;;0.52;0.52;;;;;;;16.98;50.51;101634.13;5014541;28;20046;-67
2022/04/28 07:48:08;;;;;;;0.93;0.93;;;;;;;17.06;51.21;101639.03;5015174;28;20053;-67
2022/04/28 07:50:36;;;;;;;1.13;1.02;;;;;;;17.06;49.32;101639.03;5013503;28;20048;-67
2022/04/28 07:53:26;;;;;;;1.00;0.77;;;;;;;17.07;50.14;101640.66;5013424;28;20393;-67
2022/04/28 07:58:45;;;;;;;1.08;0.85;;;;;;;17.17;51.21;101640.50;5029668;28;20050;-67
2022/04/28 08:01:46;;;;;;;1.20;0.60;;;;;;;17.20;50.44;101652.91;5029047;28;20053;-67
2022/04/28 08:04:15;;;;;;;1.10;0.85;;;;;;;17.34;51.19;101653.00;5012534;28;20058;-66
2022/04/28 08:06:47;;;;;;;0.88;0.77;;;;;;;17.39;50.78;101652.06;5012712;28;20042;-66
2022/04/28 08:09:15;;;;;;;1.70;1.05;;;;;;;17.29;50.87;101648.38;5013173;28;20053;-67
2022/04/28 08:11:43;;;;;;;0.80;0.80;;;;;;;17.40;50.17;101657.31;5012810;28;20049;-67
2022/04/28 08:14:11;;;;;;;3.95;1.20;;;;;;;17.34;49.34;101647.44;5012619;28;20054;-67
2022/04/28 08:16:40;;;;;;;1.05;0.85;;;;;;;17.36;47.70;101652.69;5012677;28;20038;-66
2022/04/28 08:19:09;;;;;;;1.52;0.90;;;;;;;17.37;48.50;101654.34;5013041;28;20042;-67
2022/04/28 08:21:46;;;;;;;1.40;0.98;;;;;;;17.40;48.05;101660.09;5028741;28;20054;-67
2022/04/28 08:24:14;;;;;;;0.80;0.80;;;;;;;17.50;47.93;101652.75;5012576;28;20508;-67
2022/04/28 08:26:45;;;;;;;0.88;0.88;;;;;;;17.66;49.19;101661.63;5012294;28;20405;-67
2022/04/28 08:29:13;;;;;;;1.20;0.93;;;;;;;17.66;49.32;101662.47;4992503;28;20069;-67
2022/04/28 08:31:45;;;;;;;1.15;0.93;;;;;;;17.67;47.70;101666.88;5012197;28;20065;-67
2022/04/28 08:34:18;;;;;;;1.33;1.05;;;;;;;17.67;46.41;101652.19;5010352;28;20049;-67
2022/04/28 08:36:47;;;;;;;1.10;1.00;;;;;;;17.56;46.51;101651.56;5013842;28;20516;-67
2022/04/28 08:39:18;;;;;;;1.73;0.85;;;;;;;17.66;48.18;101656.94;5012130;28;20499;-67
2022/04/28 08:41:47;;;;;;;1.40;1.15;;;;;;;17.79;45.87;101654.50;5012597;28;20837;-67
2022/04/28 08:44:21;;;;;;;1.48;0.98;;;;;;;17.82;48.33;101660.25;5013565;28;20485;-67
2022/04/28 08:46:59;;;;;;;0.93;0.88;;;;;;;17.75;44.79;101659.84;5028834;28;20401;-67
2022/04/28 08:49:32;;;;;;;1.30;1.20;;;;;;;17.81;42.67;101647.53;5012642;28;20041;-67
2022/04/28 08:52:19;;;;;;;0.85;0.85;;;;;;;17.99;42.87;101648.59;5006351;28;20046;-67
2022/04/28 08:54:55;;;;;;;1.25;1.15;;;;;;;18.08;42.12;101648.75;5028802;28;20477;-67
2022/04/28 08:57:24;;;;;;;1.25;1.15;;;;;;;18.18;42.42;101652.47;4995486;28;20053;-67
2022/04/28 08:59:55;;;;;;;1.38;1.23;;;;;;;18.20;40.58;101652.97;5012307;28;20038;-67
2022/04/28 09:02:29;;;;;;;2.05;1.63;;;;;;;18.10;40.88;101654.00;5012125;28;20041;-67
2022/04/28 09:05:19;;;;;;;2.22;1.38;;;;;;;18.29;40.95;101651.16;5012360;28;20038;-67
2022/04/28 09:08:20;;;;;;;1.55;1.30;;;;;;;18.27;41.90;101645.91;4985746;28;20041;-67
2022/04/28 09:11:19;;;;;;;1.33;1.20;;;;;;;18.45;42.45;101643.34;5013453;28;20050;-67
2022/04/28 09:14:09;;;;;;;1.40;1.10;;;;;;;18.50;40.81;101645.19;5012557;28;20423;-67
2022/04/28 09:16:56;;;;;;;1.88;1.45;;;;;;;18.37;41.75;101644.88;5005726;28;20045;-67
2022/04/28 09:19:27;;;;;;;2.40;1.40;;;;;;;18.33;38.72;101638.31;5011383;28;20389;-67
2022/04/28 09:22:00;;;;;;;3.15;1.80;;;;;;;18.34;40.40;101647.44;5011793;28;20041;-67
2022/04/28 09:24:29;;;;;;;1.60;1.50;;;;;;;18.49;40.60;101636.06;5011740;28;20050;-67
2022/04/28 09:26:57;;;;;;;1.70;1.33;;;;;;;18.56;38.69;101635.63;5012524;28;20817;-67
2022/04/28 09:29:36;;;;;;;2.28;1.83;;;;;;;18.60;39.86;101639.44;5027394;28;20045;-67
2022/04/28 09:32:13;;;;;;;3.22;1.50;;;;;;;18.45;38.93;101637.81;5010783;28;20072;-67
2022/04/28 09:35:21;;;;;;;1.67;1.58;;;;;;;18.43;39.77;101636.47;5010038;28;20050;-67
2022/04/28 09:38:00;;;;;;;1.77;1.48;;;;;;;18.57;40.36;101628.16;5027962;28;20046;-67
2022/04/28 09:43:37;;;;;;;1.73;1.35;;;;;;;18.66;40.36;101626.28;5027907;28;20042;-67
2022/04/28 09:46:07;;;;;;;1.60;1.38;;;;;;;18.68;39.04;101629.59;5010502;28;20049;-67
2022/04/28 09:48:38;;;;;;;1.45;1.35;;;;;;;18.73;41.61;101636.97;5010719;28;20058;-67
2022/04/28 09:51:10;;;;;;;2.30;1.55;;;;;;;18.75;40.62;101627.22;5011276;28;20046;-67
2022/04/28 09:54:01;;;;;;;1.85;1.42;;;;;;;18.85;41.36;101625.31;5012282;28;20045;-67
2022/04/28 09:56:49;;;;;;;1.63;1.33;;;;;;;18.91;40.65;101629.63;5001487;28;20065;-67
2022/04/28 09:59:27;;;;;;;1.33;1.23;;;;;;;19.04;39.62;101626.06;5011089;28;20053;-67
2022/04/28 10:01:58;;;;;;;1.85;1.55;;;;;;;18.97;39.37;101627.56;5010896;28;20053;-67
2022/04/28 10:04:30;;;;;;;1.33;1.25;;;;;;;19.03;40.14;101624.41;5010079;28;20416;-67
2022/04/28 10:07:23;;;;;;;1.52;1.42;;;;;;;19.06;38.27;101620.16;5010587;28;20057;-67
2022/04/28 10:09:54;;;;;;;2.83;1.40;;;;;;;19.28;41.08;101618.56;5012232;28;20050;-66
2022/04/28 10:12:27;;;;;;;2.10;1.50;;;;;;;19.42;37.95;101624.91;5012320;28;20400;-67
2022/04/28 10:15:22;;;;;;;2.40;1.60;;;;;;;19.36;41.47;101617.00;5013811;28;20077;-67
2022/04/28 10:17:55;;;;;;;2.08;1.52;;;;;;;19.28;40.35;101619.41;5012329;28;20053;-66
2022/04/28 10:20:31;;;;;;;1.65;1.48;;;;;;;19.36;38.61;101617.00;5027283;28;20054;-67
2022/04/28 10:32:24;;;;;;;2.42;1.80;;;;;;;19.21;40.32;101602.34;5011141;28;20512;-67
2022/04/28 10:35:07;;;;;;;1.92;1.83;;;;;;;19.19;39.74;101604.63;5011614;28;20046;-67
2022/04/28 10:37:45;;;;;;;1.80;1.70;;;;;;;19.28;38.52;101599.97;5010013;28;20057;-66
2022/04/28 10:40:16;;;;;;;3.20;2.28;;;;;;;19.27;41.04;101595.56;5011416;28;20404;-66
2022/04/28 10:42:45;;;;;;;3.10;2.25;;;;;;;19.50;39.87;101598.31;5011417;28;20061;-67
2022/04/28 10:45:28;;;;;;;2.65;2.38;;;;;;;19.37;40.59;101599.22;5011798;28;20057;-67
2022/04/28 10:48:27;;;;;;;2.47;2.22;;;;;;;19.59;40.79;101606.69;5011499;28;20061;-67
2022/04/28 10:51:26;;;;;;;2.13;1.92;;;;;;;19.71;40.70;101600.59;5011886;28;20057;-67
2022/04/28 10:54:05;;;;;;;2.92;2.72;;;;;;;19.78;37.65;101591.78;5015549;28;20065;-67
2022/04/28 10:56:42;;;;;;;2.45;2.10;;;;;;;20.08;40.12;101598.50;5015765;28;20050;-66
2022/04/28 11:02:15;;;;;;;2.72;2.00;;;;;;;20.13;39.65;101592.81;5004685;28;20413;-67
2022/04/28 11:04:51;;;;;;;2.58;2.38;;;;;;;19.96;40.30;101592.72;5015759;28;20053;-67
2022/04/28 11:07:24;;;;;;;3.00;2.42;;;;;;;20.04;39.63;101603.06;5015728;28;20054;-67
2022/04/28 11:09:55;;;;;;;4.32;2.42;;;;;;;20.01;37.10;101596.19;5015526;28;20042;-67
2022/04/28 11:12:34;;;;;;;3.80;3.10;;;;;;;20.20;40.00;101597.91;5014222;28;20121;-67
2022/04/28 11:15:09;;;;;;;3.40;3.10;;;;;;;19.94;39.75;101595.00;5014945;28;20041;-67
2022/04/28 11:17:45;;;;;;;2.65;2.45;;;;;;;20.13;39.14;101591.97;5014066;28;20515;-67
2022/04/28 11:20:15;;;;;;;3.25;2.90;;;;;;;20.09;39.00;101596.56;5015201;28;20504;-67
2022/04/28 11:22:52;;;;;;;4.13;2.95;;;;;;;19.85;39.62;101590.19;5014350;28;20046;-67
2022/04/28 11:25:22;;;;;;;4.20;2.92;;;;;;;19.95;40.61;101591.06;5014913;28;20045;-66
2022/04/28 11:27:52;;;;;;;2.97;2.65;;;;;;;20.07;41.01;101580.19;5013060;28;20050;-67
2022/04/28 11:30:25;;;;;;;3.03;2.72;;;;;;;20.13;40.36;101578.91;5029807;28;20050;-67
2022/04/28 11:32:58;;;;;;;3.60;2.85;;;;;;;20.39;41.19;101563.47;5015195;28;20057;-67
2022/04/28 11:35:34;;;;;;;3.47;3.03;;;;;;;20.33;39.48;101576.69;5013941;28;20396;-67
2022/04/28 11:38:03;;;;;;;4.18;3.00;;;;;;;20.37;39.17;101591.56;5010439;28;20062;-67
2022/04/28 11:40:34;;;;;;;3.67;3.00;;;;;;;20.40;40.42;101577.00;5001286;28;20390;-66
2022/04/28 11:43:03;;;;;;;2.47;2.28;;;;;;;20.58;41.54;101588.19;5007463;28;20501;-67
2022/04/28 11:45:32;;;;;;;3.60;3.03;;;;;;;20.60;40.24;101577.56;4992283;28;20058;-67
2022/04/28 11:48:01;;;;;;;3.60;3.08;;;;;;;20.57;38.89;101578.22;5007112;28;20420;-67
2022/04/28 11:50:32;;;;;;;3.35;2.58;;;;;;;20.65;37.48;101571.84;5012750;28;20057;-66
2022/04/28 11:53:12;;;;;;;3.25;2.90;;;;;;;21.04;40.54;101579.59;4994146;28;20037;-67
2022/04/28 11:55:41;;;;;;;3.65;2.70;;;;;;;20.99;37.49;101582.53;5001685;28;20065;-67
2022/04/28 11:58:11;;;;;;;3.10;2.80;;;;;;;21.07;40.01;101581.72;4996040;28;20408;-66
2022/04/28 12:00:45;;;;;;;3.30;3.00;;;;;;;21.26;38.42;101569.44;5011230;28;20046;-67
2022/04/28 12:03:27;;;;;;;2.78;2.55;;;;;;;21.28;38.40;101567.13;5012666;28;20054;-67
2022/04/28 12:05:56;;;;;;;4.10;2.88;;;;;;;21.23;38.99;101567.28;5012320;28;20404;-67
2022/04/28 12:08:24;;;;;;;2.95;2.60;;;;;;;21.43;37.55;101566.63;5013955;28;20484;-67
2022/04/28 12:14:22;;;;;;;3.33;2.80;;;;;;;21.54;37.98;101566.25;5000966;28;20069;-67
2022/04/28 12:19:51;;;;;;;2.65;2.45;;;;;;;21.83;37.79;101565.56;5013441;28;20053;-67
2022/04/28 12:22:44;;;;;;;2.67;2.47;;;;;;;21.78;38.92;101567.69;5013739;28;20046;-67
2022/04/28 12:25:16;;;;;;;2.67;2.45;;;;;;;21.65;38.13;101556.41;5012321;28;20057;-67
2022/04/28 12:27:47;;;;;;;3.35;2.60;;;;;;;21.62;37.42;101559.88;5012677;28;20061;-67
2022/04/28 12:30:18;;;;;;;2.70;2.47;;;;;;;21.47;35.87;101562.00;5010483;28;20064;-66
2022/04/28 12:32:51;;;;;;;2.90;2.60;;;;;;;21.60;35.34;101556.56;5012554;28;20050;-67
2022/04/28 12:35:32;;;;;;;2.90;2.30;;;;;;;21.79;37.95;101552.63;5012524;28;20049;-67
2022/04/28 12:38:06;;;;;;;3.25;2.90;;;;;;;21.90;38.01;101550.28;5010314;28;20060;-68
2022/04/28 12:40:37;;;;;;;3.03;2.50;;;;;;;21.96;36.97;101551.75;5011222;28;20050;-67